createdAt,value
2022-11-12T00:02:34.640Z,1.78
2022-11-12T00:05:23.991Z,1.81
2022-11-12T00:08:11.782Z,1.46
2022-11-12T00:10:59.528Z,1.32
2022-11-12T00:13:47.523Z,1.32
2022-11-12T00:16:35.179Z,1.43
2022-11-12T00:19:22.496Z,1.40
2022-11-12T00:22:11.602Z,1.33
2022-11-12T00:24:59.768Z,1.27
2022-11-12T00:27:47.485Z,1.18
2022-11-12T00:30:36.633Z,1.22
2022-11-12T00:33:24.375Z,1.40
2022-11-12T00:36:12.755Z,1.39
2022-11-12T00:39:01.507Z,1.32
2022-11-12T00:41:49.474Z,1.40
2022-11-12T00:44:36.974Z,1.24
2022-11-12T00:47:24.964Z,1.18
2022-11-12T00:50:12.434Z,1.17
2022-11-12T00:52:59.813Z,1.17
2022-11-12T00:55:49.071Z,1.03
2022-11-12T00:58:37.801Z,1.05
2022-11-12T01:01:26.366Z,1.30
2022-11-12T01:04:14.142Z,1.25
2022-11-12T01:07:01.773Z,1.17
2022-11-12T01:09:49.412Z,1.02
2022-11-12T01:12:38.975Z,0.89
2022-11-12T01:15:27.025Z,0.81
2022-11-12T01:18:14.394Z,0.83
2022-11-12T01:21:03.206Z,0.86
2022-11-12T01:23:51.034Z,0.83
2022-11-12T01:26:39.704Z,0.85
2022-11-12T01:29:28.748Z,0.76
2022-11-12T01:32:16.111Z,0.77
2022-11-12T01:35:03.941Z,0.82
2022-11-12T01:37:51.550Z,1.00
2022-11-12T01:40:39.226Z,0.95
2022-11-12T01:43:27.225Z,0.87
2022-11-12T01:46:21.416Z,0.96
2022-11-12T01:49:15.278Z,0.78
2022-11-12T01:52:14.871Z,0.87
2022-11-12T01:55:08.465Z,0.83
2022-11-12T01:58:00.773Z,0.82
2022-11-12T02:00:49.684Z,0.64
2022-11-12T02:03:39.419Z,0.53
2022-11-12T02:06:26.682Z,0.48
2022-11-12T02:09:15.145Z,0.55
2022-11-12T02:12:02.757Z,0.67
2022-11-12T02:14:49.847Z,0.65
2022-11-12T02:17:37.107Z,0.65
2022-11-12T02:20:26.904Z,0.79
2022-11-12T02:23:15.837Z,0.79
2022-11-12T02:26:03.987Z,0.81
2022-11-12T02:28:51.800Z,0.58
2022-11-12T02:31:39.423Z,0.51
2022-11-12T02:34:27.178Z,0.55
2022-11-12T02:37:14.871Z,0.41
2022-11-12T02:40:03.770Z,0.44
2022-11-12T02:42:51.512Z,0.39
2022-11-12T02:45:39.515Z,0.44
2022-11-12T02:48:27.302Z,0.39
2022-11-12T02:51:18.420Z,0.32
2022-11-12T02:54:06.524Z,0.30
2022-11-12T02:56:55.556Z,0.29
2022-11-12T02:59:45.919Z,0.24
2022-11-12T03:02:33.729Z,0.43
2022-11-12T03:05:21.863Z,0.43
2022-11-12T03:08:10.897Z,0.47
2022-11-12T03:10:58.191Z,0.58
2022-11-12T03:13:47.903Z,0.64
2022-11-12T03:16:35.368Z,0.54
2022-11-12T03:19:22.969Z,0.43
2022-11-12T03:22:10.855Z,0.53
2022-11-12T03:24:58.484Z,0.57
2022-11-12T03:27:46.087Z,0.56
2022-11-12T03:30:37.006Z,0.52
2022-11-12T03:33:24.497Z,0.45
2022-11-12T03:36:12.290Z,0.64
2022-11-12T03:38:59.729Z,0.66
2022-11-12T03:41:47.347Z,0.70
2022-11-12T03:44:35.173Z,0.71
2022-11-12T03:47:24.096Z,0.72
2022-11-12T03:50:12.263Z,0.81
2022-11-12T03:53:01.202Z,0.88
2022-11-12T03:55:48.694Z,0.90
2022-11-12T03:58:36.280Z,0.89
2022-11-12T04:01:24.085Z,1.01
2022-11-12T04:04:13.245Z,1.08
2022-11-12T04:07:18.281Z,1.17
2022-11-12T04:10:06.741Z,1.20
2022-11-12T04:13:12.057Z,1.17
2022-11-12T04:16:20.124Z,1.25
2022-11-12T04:19:27.586Z,1.33
2022-11-12T04:22:16.927Z,1.34
2022-11-12T04:25:22.538Z,1.23
2022-11-12T04:28:10.371Z,1.38
2022-11-12T04:30:56.927Z,1.44
2022-11-12T04:33:44.598Z,1.50
2022-11-12T04:36:32.141Z,1.51
2022-11-12T04:39:21.242Z,1.45
2022-11-12T04:42:28.387Z,1.46
2022-11-12T04:45:15.848Z,1.59
2022-11-12T04:48:03.471Z,1.65
2022-11-12T04:51:00.343Z,1.58
2022-11-12T04:53:51.527Z,1.66
2022-11-12T04:56:40.374Z,1.67
2022-11-12T04:59:28.036Z,1.71
2022-11-12T05:02:15.695Z,1.90
2022-11-12T05:05:03.425Z,2.03
2022-11-12T05:07:51.532Z,2.02
2022-11-12T05:10:39.458Z,1.85
2022-11-12T05:13:29.392Z,1.95
2022-11-12T05:16:16.905Z,1.92
2022-11-12T05:19:05.152Z,2.00
2022-11-12T05:22:17.424Z,1.97
2022-11-12T05:25:10.759Z,2.00
2022-11-12T05:27:58.608Z,2.01
2022-11-12T05:30:49.487Z,2.13
2022-11-12T05:33:36.934Z,2.03
2022-11-12T05:36:24.432Z,2.17
2022-11-12T05:39:12.043Z,2.10
2022-11-12T05:42:12.837Z,2.08
2022-11-12T05:45:00.629Z,2.14
2022-11-12T05:47:50.924Z,2.04
2022-11-12T05:50:45.422Z,2.10
2022-11-12T05:53:45.878Z,2.06
2022-11-12T05:56:33.771Z,2.28
2022-11-12T05:59:22.293Z,2.19
2022-11-12T06:02:10.450Z,2.13
2022-11-12T06:04:59.360Z,2.14
2022-11-12T06:07:46.806Z,2.22
2022-11-12T06:10:34.818Z,2.28
2022-11-12T06:13:25.261Z,2.33
2022-11-12T06:16:12.761Z,2.60
2022-11-12T06:19:00.599Z,2.71
2022-11-12T06:21:49.941Z,2.71
2022-11-12T06:24:37.952Z,2.84
2022-11-12T06:27:25.920Z,2.85
2022-11-12T06:30:14.103Z,2.78
2022-11-12T06:33:01.632Z,2.85
2022-11-12T06:35:49.127Z,2.96
2022-11-12T06:38:41.132Z,3.03
2022-11-12T06:41:28.438Z,3.09
2022-11-12T06:44:21.798Z,3.11
2022-11-12T06:47:10.962Z,3.23
2022-11-12T06:49:58.870Z,3.43
2022-11-12T06:52:46.342Z,3.47
2022-11-12T06:55:35.591Z,3.52
2022-11-12T06:58:22.884Z,3.59
2022-11-12T07:01:15.111Z,3.71
2022-11-12T07:04:02.645Z,3.74
2022-11-12T07:06:50.443Z,3.78
2022-11-12T07:09:38.155Z,3.85
2022-11-12T07:12:27.242Z,3.94
2022-11-12T07:15:14.455Z,3.97
2022-11-12T07:18:01.954Z,4.10
2022-11-12T07:20:49.664Z,4.17
2022-11-12T07:23:38.427Z,4.26
2022-11-12T07:26:28.505Z,4.26
2022-11-12T07:29:35.684Z,4.26
2022-11-12T07:32:25.249Z,4.41
2022-11-12T07:35:12.509Z,4.31
2022-11-12T07:37:59.885Z,4.38
2022-11-12T07:40:47.438Z,4.39
2022-11-12T07:43:37.369Z,4.36
2022-11-12T07:46:28.599Z,4.34
2022-11-12T07:49:16.027Z,4.42
2022-11-12T07:52:04.169Z,4.57
2022-11-12T07:54:51.447Z,4.68
2022-11-12T07:57:39.035Z,4.87
2022-11-12T08:00:26.659Z,5.15
2022-11-12T08:03:17.721Z,5.27
2022-11-12T08:06:06.148Z,5.43
2022-11-12T08:08:54.430Z,5.65
2022-11-12T08:11:42.506Z,5.80
2022-11-12T08:14:29.665Z,6.00
2022-11-12T08:17:17.004Z,6.28
2022-11-12T08:20:06.915Z,6.53
2022-11-12T08:22:54.920Z,6.78
2022-11-12T08:25:42.489Z,7.01
2022-11-12T08:28:31.183Z,7.09
2022-11-12T08:31:22.163Z,7.25
2022-11-12T08:34:21.399Z,7.47
2022-11-12T08:37:11.492Z,7.62
2022-11-12T08:39:59.424Z,7.97
2022-11-12T08:42:46.767Z,8.22
2022-11-12T08:45:35.543Z,8.36
2022-11-12T08:48:23.051Z,8.48
2022-11-12T08:51:10.247Z,8.72
2022-11-12T08:53:59.159Z,9.01
2022-11-12T08:56:47.132Z,9.41
2022-11-12T08:59:36.818Z,9.85
2022-11-12T09:02:24.485Z,10.30
2022-11-12T09:05:11.746Z,10.71
2022-11-12T09:08:00.354Z,11.00
2022-11-12T09:10:50.333Z,11.48
2022-11-12T09:13:39.315Z,11.80
2022-11-12T09:16:27.235Z,11.86
2022-11-12T09:19:15.039Z,11.79
2022-11-12T09:22:02.426Z,11.64
2022-11-12T09:24:50.266Z,11.64
2022-11-12T09:27:41.197Z,11.69
2022-11-12T09:30:31.960Z,11.73
2022-11-12T09:33:23.724Z,11.79
2022-11-12T09:36:11.675Z,11.81
2022-11-12T09:38:59.087Z,11.75
2022-11-12T09:41:46.609Z,11.82
2022-11-12T09:44:40.209Z,11.93
2022-11-12T09:47:33.544Z,11.91
2022-11-12T09:50:26.382Z,11.91
2022-11-12T09:53:18.259Z,11.98
2022-11-12T09:56:11.877Z,12.19
2022-11-12T09:58:59.565Z,12.29
2022-11-12T10:02:00.150Z,12.54
2022-11-12T10:05:02.182Z,12.84
2022-11-12T10:08:09.184Z,13.28
2022-11-12T10:11:11.323Z,13.59
2022-11-12T10:14:13.609Z,13.66
2022-11-12T10:17:10.656Z,13.72
2022-11-12T10:20:16.538Z,13.64
2022-11-12T10:23:17.512Z,13.46
2022-11-12T10:26:13.869Z,13.34
2022-11-12T10:29:13.880Z,13.52
2022-11-12T10:32:05.720Z,13.69
2022-11-12T10:34:54.255Z,13.94
2022-11-12T10:37:49.839Z,14.09
2022-11-12T10:40:40.207Z,14.04
2022-11-12T10:43:28.097Z,13.81
2022-11-12T10:46:21.988Z,13.52
2022-11-12T10:49:26.190Z,13.43
2022-11-12T10:52:24.580Z,13.50
2022-11-12T10:55:20.964Z,13.69
2022-11-12T10:58:21.263Z,14.11
2022-11-12T11:01:18.831Z,14.50
2022-11-12T11:04:16.752Z,14.69
2022-11-12T11:07:08.801Z,14.86
2022-11-12T11:09:58.744Z,15.06
2022-11-12T11:12:47.936Z,15.17
2022-11-12T11:15:35.525Z,15.51
2022-11-12T11:18:23.963Z,15.69
2022-11-12T11:21:47.337Z,15.51
2022-11-12T11:24:50.166Z,15.42
2022-11-12T11:27:49.718Z,15.68
2022-11-12T11:30:45.907Z,15.67
2022-11-12T11:33:46.788Z,15.90
2022-11-12T11:36:43.401Z,15.75
2022-11-12T11:39:46.725Z,15.46
2022-11-12T11:42:58.802Z,15.17
2022-11-12T11:46:07.198Z,14.84
2022-11-12T11:49:20.706Z,14.74
2022-11-12T11:52:41.814Z,14.83
2022-11-12T11:55:52.635Z,15.29
2022-11-12T11:59:00.995Z,15.34
2022-11-12T12:02:12.165Z,15.22
2022-11-12T12:05:22.818Z,15.12
2022-11-12T12:08:17.929Z,15.12
2022-11-12T12:11:13.371Z,15.40
2022-11-12T12:14:23.882Z,15.70
2022-11-12T12:17:27.853Z,15.67
2022-11-12T12:20:30.335Z,15.86
2022-11-12T12:23:28.703Z,16.28
2022-11-12T12:26:21.884Z,16.20
2022-11-12T12:29:17.131Z,15.96
2022-11-12T12:32:13.315Z,15.65
2022-11-12T12:35:11.844Z,15.59
2022-11-12T12:38:12.700Z,15.69
2022-11-12T12:41:11.058Z,15.72
2022-11-12T12:44:05.758Z,15.58
2022-11-12T12:46:58.480Z,15.58
2022-11-12T12:49:48.933Z,15.85
2022-11-12T12:53:05.463Z,16.46
2022-11-12T12:55:54.783Z,17.04
2022-11-12T12:58:46.018Z,17.67
2022-11-12T13:01:37.447Z,17.88
2022-11-12T13:04:55.210Z,18.45
2022-11-12T13:07:46.847Z,20.23
2022-11-12T13:10:56.173Z,20.74
2022-11-12T13:13:43.820Z,20.93
2022-11-12T13:17:00.444Z,21.38
2022-11-12T13:20:09.408Z,22.77
2022-11-12T13:22:56.680Z,23.49
2022-11-12T13:25:44.181Z,23.24
2022-11-12T13:28:32.034Z,23.63
2022-11-12T13:31:30.049Z,23.00
2022-11-12T13:34:27.280Z,21.75
2022-11-12T13:37:22.203Z,21.20
2022-11-12T13:40:16.186Z,21.84
2022-11-12T13:43:31.420Z,22.04
2022-11-12T13:46:28.928Z,22.96
2022-11-12T13:49:18.849Z,24.59
2022-11-12T13:52:08.299Z,26.24
2022-11-12T13:55:03.799Z,28.45
2022-11-12T13:57:52.097Z,29.84
2022-11-12T14:00:40.169Z,30.73
2022-11-12T14:03:33.088Z,31.17
2022-11-12T14:06:33.324Z,30.89
2022-11-12T14:09:41.887Z,30.79
2022-11-12T14:13:12.355Z,27.79
2022-11-12T14:16:21.595Z,27.16
2022-11-12T14:19:43.913Z,28.51
2022-11-12T14:22:41.423Z,29.24
2022-11-12T14:25:30.857Z,29.46
2022-11-12T14:28:31.427Z,29.62
2022-11-12T14:31:26.088Z,29.50
2022-11-12T14:34:29.021Z,29.40
2022-11-12T14:37:39.815Z,29.13
2022-11-12T14:40:35.310Z,28.42
2022-11-12T14:43:32.078Z,26.03
2022-11-12T14:46:26.924Z,23.34
2022-11-12T14:49:22.997Z,20.05
2022-11-12T14:52:17.369Z,17.47
2022-11-12T14:55:13.883Z,15.81
2022-11-12T14:58:04.379Z,14.57
2022-11-12T15:00:55.077Z,13.64
2022-11-12T15:03:49.080Z,12.99
2022-11-12T15:06:36.834Z,12.32
2022-11-12T15:09:36.354Z,11.82
2022-11-12T15:12:28.214Z,11.41
2022-11-12T15:15:25.320Z,11.04
2022-11-12T15:18:19.740Z,10.74
2022-11-12T15:21:16.347Z,10.54
2022-11-12T15:24:17.726Z,10.34
2022-11-12T15:27:36.133Z,10.10
2022-11-12T15:30:28.787Z,9.86
2022-11-12T15:33:22.555Z,9.64
2022-11-12T15:36:18.216Z,9.22
2022-11-12T15:39:14.981Z,9.00
2022-11-12T15:42:06.114Z,8.96
2022-11-12T15:45:01.114Z,8.89
2022-11-12T15:47:50.243Z,8.73
2022-11-12T15:50:39.149Z,8.65
2022-11-12T15:53:27.521Z,8.47
2022-11-12T15:56:19.516Z,8.24
2022-11-12T15:59:07.835Z,7.97
2022-11-12T16:01:55.662Z,7.73
2022-11-12T16:04:44.573Z,7.59
2022-11-12T16:07:32.279Z,7.78
2022-11-12T16:10:21.054Z,7.81
2022-11-12T16:13:15.148Z,7.83
2022-11-12T16:16:06.147Z,7.78
2022-11-12T16:18:53.895Z,8.06
2022-11-12T16:21:42.891Z,7.77
2022-11-12T16:24:30.787Z,7.52
2022-11-12T16:27:20.564Z,7.51
2022-11-12T16:30:16.602Z,7.39
2022-11-12T16:33:04.262Z,7.29
2022-11-12T16:35:52.155Z,7.15
2022-11-12T16:38:40.902Z,7.02
2022-11-12T16:41:28.504Z,6.90
2022-11-12T16:44:16.004Z,6.77
2022-11-12T16:47:05.522Z,6.66
2022-11-12T16:49:52.873Z,6.67
2022-11-12T16:52:40.602Z,6.63
2022-11-12T16:55:29.183Z,6.59
2022-11-12T16:58:16.785Z,6.65
2022-11-12T17:01:05.469Z,6.71
2022-11-12T17:03:53.934Z,6.63
2022-11-12T17:06:42.267Z,6.49
2022-11-12T17:09:29.788Z,6.49
2022-11-12T17:12:18.884Z,6.39
2022-11-12T17:15:08.792Z,6.20
2022-11-12T17:17:57.036Z,6.09
2022-11-12T17:20:49.921Z,6.07
2022-11-12T17:23:38.882Z,6.00
2022-11-12T17:26:26.227Z,6.05
2022-11-12T17:29:15.337Z,6.12
2022-11-12T17:32:05.632Z,6.10
2022-11-12T17:34:53.607Z,6.17
2022-11-12T17:37:41.503Z,6.33
2022-11-12T17:40:28.974Z,6.34
2022-11-12T17:43:16.583Z,6.31
2022-11-12T17:46:07.999Z,6.34
2022-11-12T17:48:56.661Z,6.32
2022-11-12T17:51:44.310Z,6.20
2022-11-12T17:54:31.662Z,6.16
2022-11-12T17:57:19.216Z,6.18
2022-11-12T18:00:08.562Z,6.33
2022-11-12T18:02:58.261Z,6.17
2022-11-12T18:05:45.993Z,6.62
2022-11-12T18:08:33.778Z,6.37
2022-11-12T18:11:21.944Z,6.38
2022-11-12T18:14:09.798Z,6.22
2022-11-12T18:17:01.371Z,6.15
2022-11-12T18:19:50.118Z,6.06
2022-11-12T18:22:43.687Z,5.95
2022-11-12T18:25:34.013Z,5.81
2022-11-12T18:28:21.855Z,5.73
2022-11-12T18:31:12.455Z,5.63
2022-11-12T18:33:59.675Z,5.56
2022-11-12T18:36:48.463Z,5.50
2022-11-12T18:39:35.711Z,5.44
2022-11-12T18:42:23.724Z,5.38
2022-11-12T18:45:12.034Z,5.29
2022-11-12T18:47:59.332Z,5.23
2022-11-12T18:50:47.347Z,5.07
2022-11-12T18:53:37.297Z,5.17
2022-11-12T18:56:25.292Z,5.04
2022-11-12T18:59:12.990Z,5.00
2022-11-12T19:02:00.605Z,5.04
2022-11-12T19:04:51.099Z,4.82
2022-11-12T19:07:38.911Z,4.80
2022-11-12T19:10:28.037Z,4.81
2022-11-12T19:13:15.444Z,4.76
2022-11-12T19:16:08.602Z,4.61
2022-11-12T19:18:56.279Z,4.68
2022-11-12T19:21:44.166Z,4.88
2022-11-12T19:24:32.098Z,5.14
2022-11-12T19:27:21.095Z,4.89
2022-11-12T19:30:10.697Z,4.74
2022-11-12T19:32:57.970Z,4.62
2022-11-12T19:35:45.451Z,4.45
2022-11-12T19:38:33.962Z,4.50
2022-11-12T19:41:24.771Z,4.55
2022-11-12T19:44:13.768Z,4.50
2022-11-12T19:47:01.565Z,4.58
2022-11-12T19:49:48.935Z,4.70
2022-11-12T19:52:36.516Z,4.81
2022-11-12T19:55:25.727Z,4.75
2022-11-12T19:58:13.083Z,4.64
2022-11-12T20:01:06.872Z,4.85
2022-11-12T20:03:54.910Z,4.88
2022-11-12T20:06:42.537Z,4.72
2022-11-12T20:09:30.139Z,4.60
2022-11-12T20:12:17.488Z,4.49
2022-11-12T20:15:07.739Z,4.42
2022-11-12T20:17:58.608Z,4.44
2022-11-12T20:20:51.639Z,4.56
2022-11-12T20:23:42.970Z,4.63
2022-11-12T20:26:30.494Z,4.51
2022-11-12T20:29:18.380Z,4.49
2022-11-12T20:32:07.230Z,4.40
2022-11-12T20:34:56.561Z,4.29
2022-11-12T20:37:43.957Z,4.16
2022-11-12T20:40:32.614Z,4.27
2022-11-12T20:43:20.204Z,4.36
2022-11-12T20:46:07.654Z,4.39
2022-11-12T20:48:55.322Z,4.24
2022-11-12T20:51:44.267Z,4.30
2022-11-12T20:54:31.554Z,4.33
2022-11-12T20:57:19.115Z,4.30
2022-11-12T21:00:13.271Z,4.39
2022-11-12T21:03:06.215Z,4.41
2022-11-12T21:05:59.586Z,4.47
2022-11-12T21:08:48.884Z,4.35
2022-11-12T21:11:36.807Z,4.32
2022-11-12T21:14:24.731Z,4.33
2022-11-12T21:17:12.065Z,4.28
2022-11-12T21:19:59.725Z,4.26
2022-11-12T21:22:49.561Z,4.33
2022-11-12T21:25:39.211Z,4.36
2022-11-12T21:28:27.380Z,4.32
2022-11-12T21:31:17.902Z,4.23
2022-11-12T21:34:07.100Z,4.38
2022-11-12T21:36:55.111Z,4.29
2022-11-12T21:39:42.502Z,4.31
2022-11-12T21:42:31.510Z,4.38
2022-11-12T21:45:19.277Z,4.44
2022-11-12T21:48:06.858Z,4.64
2022-11-12T21:50:55.179Z,4.87
2022-11-12T21:53:44.878Z,4.90
2022-11-12T21:56:34.533Z,4.80
2022-11-12T21:59:28.655Z,4.86
2022-11-12T22:02:16.900Z,4.89
2022-11-12T22:05:06.005Z,4.89
2022-11-12T22:07:53.782Z,4.72
2022-11-12T22:10:41.504Z,4.67
2022-11-12T22:13:29.404Z,4.59
2022-11-12T22:16:20.858Z,4.46
2022-11-12T22:19:08.772Z,4.43
2022-11-12T22:21:56.358Z,4.45
2022-11-12T22:24:43.670Z,4.37
2022-11-12T22:27:33.850Z,4.27
2022-11-12T22:30:21.537Z,4.25
2022-11-12T22:33:10.643Z,4.33
2022-11-12T22:36:01.630Z,4.31
2022-11-12T22:38:52.777Z,4.36
2022-11-12T22:41:40.615Z,4.42
2022-11-12T22:44:28.063Z,4.55
2022-11-12T22:47:15.396Z,4.74
2022-11-12T22:50:04.170Z,4.72
2022-11-12T22:52:51.994Z,4.79
2022-11-12T22:55:39.557Z,4.73
2022-11-12T22:58:27.552Z,4.80
2022-11-12T23:01:22.062Z,4.78
2022-11-12T23:04:10.374Z,4.76
2022-11-12T23:06:59.686Z,4.94
2022-11-12T23:09:47.136Z,4.93
2022-11-12T23:12:35.418Z,4.77
2022-11-12T23:15:23.236Z,4.73
2022-11-12T23:18:10.903Z,4.79
2022-11-12T23:21:04.075Z,4.78
2022-11-12T23:23:53.610Z,4.88
2022-11-12T23:26:41.355Z,4.88
2022-11-12T23:29:29.456Z,4.91
2022-11-12T23:32:19.332Z,4.99
2022-11-12T23:35:08.222Z,4.95
2022-11-12T23:37:55.658Z,5.02
2022-11-12T23:40:55.373Z,5.13
2022-11-12T23:43:43.451Z,5.04
2022-11-12T23:46:31.122Z,4.95
2022-11-12T23:49:18.587Z,4.83
2022-11-12T23:52:06.322Z,4.77
2022-11-12T23:54:53.677Z,4.70
2022-11-12T23:57:44.378Z,4.56
